Time;durP1;ratioP1;P1;durP2;ratioP2;P2;SDS_P1;SDS_P2;PMS_P1;PMS_P2;Temp;Humidity;BMP_temperature;BMP_pressure;BME280_temperature;BME280_humidity;BME280_pressure;Samples;Min_cycle;Max_cycle;Signal;HPM_P1;HPM_P2
2023/10/21 00:01:14;;;;;;;12.50;9.90;;;17.80;99.90;;;;;;5166408;28;20026;-78
2023/10/21 00:03:45;;;;;;;9.68;8.45;;;17.70;99.90;;;;;;5167884;28;20398;-77
2023/10/21 00:06:15;;;;;;;11.10;9.18;;;17.90;99.90;;;;;;5167802;28;20022;-78
2023/10/21 00:08:46;;;;;;;12.48;9.40;;;17.70;99.90;;;;;;5166213;28;20045;-77
2023/10/21 00:11:17;;;;;;;12.40;10.10;;;17.70;99.90;;;;;;5167510;28;20109;-78
2023/10/21 00:13:48;;;;;;;14.13;10.43;;;17.70;99.90;;;;;;5166374;28;20165;-78
2023/10/21 00:16:19;;;;;;;14.13;9.88;;;17.70;99.90;;;;;;5167622;28;20506;-78
2023/10/21 00:18:50;;;;;;;13.77;10.05;;;17.70;99.90;;;;;;5167285;28;20556;-78
2023/10/21 00:21:21;;;;;;;16.20;9.45;;;17.70;99.90;;;;;;5166216;28;20081;-77
2023/10/21 00:23:52;;;;;;;13.00;9.02;;;17.70;99.90;;;;;;5167415;28;20430;-78
2023/10/21 00:26:23;;;;;;;13.77;9.98;;;17.60;99.90;;;;;;5166096;28;20026;-78
2023/10/21 00:28:54;;;;;;;18.13;10.15;;;17.50;99.90;;;;;;5166813;28;20037;-78
2023/10/21 00:31:25;;;;;;;13.73;10.35;;;17.60;99.90;;;;;;5166011;28;20029;-78
2023/10/21 00:33:56;;;;;;;14.98;11.30;;;17.50;99.90;;;;;;5167509;28;20474;-78
2023/10/21 00:36:26;;;;;;;11.93;10.73;;;17.60;99.90;;;;;;5165860;28;20495;-78
2023/10/21 00:38:57;;;;;;;12.70;10.60;;;17.50;99.90;;;;;;5167386;28;20030;-78
2023/10/21 00:41:28;;;;;;;14.82;10.52;;;17.60;99.90;;;;;;5166814;28;20052;-77
2023/10/21 00:43:59;;;;;;;15.25;11.38;;;17.50;99.90;;;;;;5166689;28;20509;-77
2023/10/21 00:46:30;;;;;;;14.10;10.65;;;17.40;99.90;;;;;;5166133;28;20416;-77
2023/10/21 00:49:03;;;;;;;12.40;11.13;;;17.40;99.90;;;;;;5166808;28;20121;-78
2023/10/21 00:51:35;;;;;;;13.23;11.70;;;17.40;99.90;;;;;;5165637;28;20049;-78
2023/10/21 00:54:07;;;;;;;15.02;11.60;;;17.50;99.90;;;;;;5166825;28;20166;-78
2023/10/21 00:56:38;;;;;;;17.00;11.95;;;17.40;99.90;;;;;;5166751;28;20029;-79
2023/10/21 00:59:11;;;;;;;12.88;11.25;;;17.40;99.90;;;;;;5166854;28;20026;-78
2023/10/21 01:01:43;;;;;;;13.82;11.50;;;17.40;99.90;;;;;;5165583;28;20033;-78
2023/10/21 01:04:16;;;;;;;14.25;12.18;;;17.40;99.90;;;;;;5166690;28;20026;-78
2023/10/21 01:06:47;;;;;;;12.35;11.15;;;17.40;99.90;;;;;;5167229;28;20363;-78
2023/10/21 01:09:18;;;;;;;14.75;11.60;;;17.40;99.90;;;;;;5166266;28;20058;-78
2023/10/21 01:11:49;;;;;;;16.33;12.25;;;17.40;99.90;;;;;;5166459;28;20135;-78
2023/10/21 01:14:19;;;;;;;13.07;11.88;;;17.40;99.90;;;;;;5165418;28;20148;-78
2023/10/21 01:16:50;;;;;;;16.70;12.45;;;17.40;99.90;;;;;;5166332;28;20114;-78
2023/10/21 01:19:21;;;;;;;19.23;11.68;;;17.40;99.90;;;;;;5166674;28;20034;-78
2023/10/21 01:21:52;;;;;;;13.43;11.30;;;17.40;99.90;;;;;;5165285;28;20487;-78
2023/10/21 01:24:23;;;;;;;13.77;11.43;;;17.50;99.90;;;;;;5166442;28;20509;-77
2023/10/21 01:26:53;;;;;;;12.43;11.10;;;17.50;99.90;;;;;;5166448;28;20019;-78
2023/10/21 01:29:24;;;;;;;14.70;11.15;;;17.40;99.90;;;;;;5166356;28;20109;-78
2023/10/21 01:31:55;;;;;;;15.30;11.63;;;17.40;99.90;;;;;;5165212;28;20502;-78
2023/10/21 01:34:26;;;;;;;13.35;11.63;;;17.40;99.90;;;;;;5165018;28;20030;-78
2023/10/21 01:36:56;;;;;;;13.40;11.10;;;17.40;99.90;;;;;;5166333;28;20046;-77
2023/10/21 01:39:27;;;;;;;16.00;11.57;;;17.50;99.90;;;;;;5164880;28;20386;-78
2023/10/21 01:41:58;;;;;;;14.82;12.05;;;17.50;99.90;;;;;;5166077;28;20059;-78
2023/10/21 01:44:29;;;;;;;16.33;10.88;;;17.40;99.90;;;;;;5165047;28;20110;-77
2023/10/21 01:47:00;;;;;;;14.07;11.55;;;17.50;99.90;;;;;;5166512;28;20034;-78
2023/10/21 01:49:31;;;;;;;14.80;10.88;;;17.60;99.90;;;;;;5164848;28;20048;-78
2023/10/21 01:52:02;;;;;;;12.55;11.35;;;17.40;99.90;;;;;;5164887;28;20474;-78
2023/10/21 01:54:33;;;;;;;16.80;11.00;;;17.40;99.90;;;;;;5166154;28;20030;-78
2023/10/21 01:57:04;;;;;;;16.13;11.88;;;17.50;99.90;;;;;;5167529;28;20026;-78
2023/10/21 01:59:42;;;;;;;22.13;12.90;;;17.50;99.90;;;;;;5168949;28;20122;-78
2023/10/21 02:02:12;;;;;;;14.23;12.73;;;17.40;99.90;;;;;;5170256;28;20030;-78
2023/10/21 02:04:43;;;;;;;12.63;11.27;;;17.40;99.90;;;;;;5170172;28;20034;-78
2023/10/21 02:07:14;;;;;;;14.57;12.20;;;17.50;99.90;;;;;;5170225;28;20018;-78
2023/10/21 02:09:45;;;;;;;14.40;12.38;;;17.50;99.90;;;;;;5168466;28;20128;-78
2023/10/21 02:12:16;;;;;;;17.67;13.10;;;17.50;99.90;;;;;;5170056;28;20031;-78
2023/10/21 02:14:47;;;;;;;13.20;11.80;;;17.60;99.90;;;;;;5170286;28;20501;-78
2023/10/21 02:17:18;;;;;;;17.70;12.63;;;17.50;99.90;;;;;;5169682;28;20054;-78
2023/10/21 02:19:56;;;;;;;15.70;12.43;;;17.50;99.90;;;;;;5168630;28;20026;-78
2023/10/21 02:22:27;;;;;;;16.95;13.52;;;17.50;99.90;;;;;;5169938;28;20023;-78
2023/10/21 02:24:58;;;;;;;16.92;13.63;;;17.40;99.90;;;;;;5170014;28;20057;-78
2023/10/21 02:27:29;;;;;;;17.80;14.18;;;17.30;99.90;;;;;;5168459;28;20414;-78
2023/10/21 02:29:59;;;;;;;20.65;13.73;;;17.50;99.90;;;;;;5168425;28;20121;-78
2023/10/21 02:32:31;;;;;;;19.55;13.02;;;17.50;99.90;;;;;;5169576;28;20054;-78
2023/10/21 02:35:02;;;;;;;19.20;13.70;;;17.50;99.90;;;;;;5169191;28;20022;-78
2023/10/21 02:37:33;;;;;;;15.68;14.15;;;17.50;99.90;;;;;;5169738;28;20040;-79
2023/10/21 02:40:04;;;;;;;17.15;14.90;;;17.40;99.90;;;;;;5167902;28;20893;-78
2023/10/21 02:42:36;;;;;;;23.98;15.90;;;17.40;99.90;;;;;;5169485;28;20046;-79
2023/10/21 02:45:07;;;;;;;20.92;15.07;;;17.60;99.90;;;;;;5168051;28;20026;-78
2023/10/21 02:47:38;;;;;;;17.85;15.40;;;17.60;99.90;;;;;;5169304;28;20037;-78
2023/10/21 02:50:09;;;;;;;21.67;15.80;;;17.60;99.90;;;;;;5169212;28;20093;-78
2023/10/21 02:52:40;;;;;;;22.65;16.40;;;17.50;99.90;;;;;;5169135;28;20019;-78
2023/10/21 02:55:11;;;;;;;23.23;16.85;;;17.50;99.90;;;;;;5167632;28;20114;-78
2023/10/21 02:57:48;;;;;;;25.00;17.05;;;17.60;99.90;;;;;;5169014;28;20014;-79
2023/10/21 03:00:26;;;;;;;22.10;17.17;;;17.60;99.90;;;;;;5169029;28;20034;-78
2023/10/21 03:02:56;;;;;;;24.15;16.85;;;17.50;99.90;;;;;;5168787;28;20478;-78
2023/10/21 03:05:27;;;;;;;22.58;16.98;;;17.50;99.90;;;;;;5167688;28;20033;-78
2023/10/21 03:07:58;;;;;;;26.20;18.60;;;17.50;99.90;;;;;;5168158;28;20105;-78
2023/10/21 03:10:29;;;;;;;25.55;18.45;;;17.40;99.90;;;;;;5168444;28;20399;-78
2023/10/21 03:13:00;;;;;;;30.05;20.17;;;17.40;99.90;;;;;;5168850;28;20053;-78
2023/10/21 03:15:33;;;;;;;25.05;19.00;;;17.40;99.90;;;;;;5168675;28;20137;-78
2023/10/21 03:18:04;;;;;;;26.95;18.88;;;17.40;99.90;;;;;;5167438;28;20125;-78
2023/10/21 03:20:35;;;;;;;24.60;19.27;;;17.30;99.90;;;;;;5168665;28;20097;-78
2023/10/21 03:23:06;;;;;;;26.08;20.15;;;17.30;99.90;;;;;;5168643;28;20022;-78
2023/10/21 03:25:36;;;;;;;23.73;19.80;;;17.40;99.90;;;;;;5168945;28;20026;-78
2023/10/21 03:28:07;;;;;;;20.80;18.33;;;17.30;99.90;;;;;;5167145;28;20073;-78
2023/10/21 03:30:38;;;;;;;25.67;18.30;;;17.30;99.90;;;;;;5168652;28;20538;-78
2023/10/21 03:33:09;;;;;;;27.15;18.17;;;17.40;99.90;;;;;;5168484;28;20026;-78
2023/10/21 03:35:39;;;;;;;23.08;18.00;;;17.30;99.90;;;;;;5168156;28;20037;-78
2023/10/21 03:38:10;;;;;;;28.35;17.75;;;17.40;99.90;;;;;;5168297;28;20029;-78
2023/10/21 03:40:41;;;;;;;24.88;16.67;;;17.40;99.90;;;;;;5168034;28;20061;-78
2023/10/21 03:43:12;;;;;;;27.40;17.17;;;17.50;99.90;;;;;;5166951;28;20117;-78
2023/10/21 03:45:43;;;;;;;23.40;16.85;;;17.40;99.90;;;;;;5168147;28;20033;-78
2023/10/21 03:48:14;;;;;;;21.63;15.90;;;17.50;99.90;;;;;;5168144;28;20042;-79
2023/10/21 03:50:45;;;;;;;20.33;14.98;;;17.30;99.90;;;;;;5168091;28;20022;-78
2023/10/21 03:53:16;;;;;;;23.13;15.57;;;17.40;99.90;;;;;;5168380;28;20080;-78
2023/10/21 03:55:47;;;;;;;19.35;15.57;;;17.30;99.90;;;;;;5167928;28;20030;-78
2023/10/21 03:58:18;;;;;;;26.52;16.58;;;17.40;99.90;;;;;;5168141;28;20027;-78
2023/10/21 04:00:50;;;;;;;22.65;15.38;;;17.50;99.90;;;;;;5167911;28;20053;-79
2023/10/21 04:03:35;;;;;;;25.23;16.02;;;17.40;99.90;;;;;;5167899;28;20837;-79
2023/10/21 04:06:08;;;;;;;22.70;16.40;;;17.30;99.90;;;;;;5167716;28;20034;-78
2023/10/21 04:08:39;;;;;;;24.27;16.52;;;17.20;99.90;;;;;;5167528;28;20035;-78
2023/10/21 04:11:10;;;;;;;23.92;16.58;;;17.20;99.90;;;;;;5167615;28;20041;-78
2023/10/21 04:13:41;;;;;;;23.58;18.23;;;17.30;99.90;;;;;;5166398;28;20030;-78
2023/10/21 04:16:13;;;;;;;24.70;18.83;;;17.20;99.90;;;;;;5167630;28;20410;-78
2023/10/21 04:18:44;;;;;;;23.00;18.42;;;17.10;99.90;;;;;;5166116;28;20030;-78
2023/10/21 04:21:15;;;;;;;23.58;20.30;;;17.20;99.90;;;;;;5167418;28;20022;-78
2023/10/21 04:23:46;;;;;;;24.00;17.92;;;17.10;99.90;;;;;;5166152;28;20030;-79
2023/10/21 04:26:17;;;;;;;26.75;19.05;;;17.10;99.90;;;;;;5167410;28;20033;-79
2023/10/21 04:28:49;;;;;;;26.45;19.08;;;17.10;99.90;;;;;;5167244;28;20022;-79
2023/10/21 04:31:19;;;;;;;26.00;17.88;;;17.00;99.90;;;;;;5167235;28;20056;-78
2023/10/21 04:33:50;;;;;;;25.55;17.73;;;17.00;99.90;;;;;;5167282;28;20522;-78
2023/10/21 04:36:21;;;;;;;21.33;16.88;;;17.00;99.90;;;;;;5165947;28;20049;-78
2023/10/21 04:38:52;;;;;;;29.15;16.73;;;17.20;99.90;;;;;;5167022;28;20034;-78
2023/10/21 04:41:22;;;;;;;27.40;17.27;;;17.20;99.90;;;;;;5166810;28;20057;-78
2023/10/21 04:43:53;;;;;;;21.25;16.83;;;17.30;99.90;;;;;;5165801;28;20065;-78
2023/10/21 04:46:24;;;;;;;23.33;16.90;;;17.30;99.90;;;;;;5165729;28;20390;-78
2023/10/21 04:48:55;;;;;;;26.38;16.67;;;17.30;99.90;;;;;;5166845;28;20030;-79
2023/10/21 04:51:26;;;;;;;22.42;16.30;;;17.40;99.90;;;;;;5166892;28;20076;-78
2023/10/21 04:53:57;;;;;;;23.05;16.30;;;17.40;99.90;;;;;;5166942;28;20475;-78
2023/10/21 04:56:28;;;;;;;21.58;15.85;;;17.50;99.90;;;;;;5166896;28;20034;-79
2023/10/21 04:58:59;;;;;;;23.27;16.05;;;17.40;99.90;;;;;;5167235;28;20022;-78
2023/10/21 05:01:30;;;;;;;27.70;16.15;;;17.50;99.90;;;;;;5165295;28;20128;-78
2023/10/21 05:04:01;;;;;;;23.45;16.70;;;17.40;99.90;;;;;;5165542;28;20076;-79
2023/10/21 05:06:32;;;;;;;22.83;16.48;;;17.50;99.90;;;;;;5166730;28;20054;-79
2023/10/21 05:09:03;;;;;;;26.83;17.90;;;17.60;99.90;;;;;;5165184;28;20135;-79
2023/10/21 05:11:34;;;;;;;23.73;16.85;;;17.70;99.90;;;;;;5166471;28;20038;-78
2023/10/21 05:14:04;;;;;;;25.27;16.15;;;17.70;99.90;;;;;;5166631;28;20371;-78
2023/10/21 05:16:35;;;;;;;21.48;14.70;;;17.70;99.90;;;;;;5166490;28;20022;-79
2023/10/21 05:19:06;;;;;;;20.83;14.15;;;17.80;99.90;;;;;;5166392;28;20030;-79
2023/10/21 05:21:37;;;;;;;22.48;12.75;;;17.90;99.90;;;;;;5166462;28;20419;-79
2023/10/21 05:24:08;;;;;;;18.38;12.77;;;17.80;99.90;;;;;;5166787;28;20101;-78
2023/10/21 05:26:39;;;;;;;20.73;11.43;;;18.00;99.90;;;;;;5166002;28;20026;-78
2023/10/21 05:29:11;;;;;;;15.40;10.52;;;18.00;99.90;;;;;;5164670;28;20041;-79
2023/10/21 05:31:42;;;;;;;18.83;11.38;;;18.10;99.90;;;;;;5164482;28;20034;-79
2023/10/21 05:34:19;;;;;;;17.23;11.77;;;18.40;99.90;;;;;;5166261;28;20072;-79
2023/10/21 05:36:50;;;;;;;13.23;10.98;;;18.60;99.90;;;;;;5166325;28;20033;-78
2023/10/21 05:39:22;;;;;;;14.15;11.40;;;18.60;99.90;;;;;;5616977;23;20066;-78
2023/10/21 05:41:53;;;;;;;16.83;12.52;;;18.60;99.90;;;;;;5144718;28;20566;-78
2023/10/21 05:44:25;;;;;;;17.30;13.55;;;18.70;99.90;;;;;;5146186;28;20030;-78
2023/10/21 05:46:57;;;;;;;19.50;17.00;;;18.80;99.90;;;;;;5145377;28;20102;-78
2023/10/21 05:49:27;;;;;;;17.67;14.23;;;18.90;99.90;;;;;;5146000;28;20122;-78
2023/10/21 05:51:58;;;;;;;15.57;13.00;;;18.90;99.90;;;;;;5145567;28;20027;-79
2023/10/21 05:54:32;;;;;;;16.08;12.63;;;19.00;99.90;;;;;;5144430;28;20431;-78
2023/10/21 05:57:03;;;;;;;15.05;11.30;;;19.10;99.90;;;;;;5147822;28;20086;-79
2023/10/21 05:59:34;;;;;;;17.40;12.48;;;19.20;99.90;;;;;;5145813;28;20471;-78
2023/10/21 06:02:05;;;;;;;19.02;11.35;;;19.40;99.90;;;;;;5145926;28;20030;-79
2023/10/21 06:04:36;;;;;;;15.65;11.63;;;19.30;99.90;;;;;;5145857;28;20093;-78
2023/10/21 06:07:07;;;;;;;19.83;11.55;;;19.40;99.90;;;;;;5145884;28;20027;-78
2023/10/21 06:09:38;;;;;;;20.02;12.02;;;19.50;99.90;;;;;;5160264;28;20445;-78
2023/10/21 06:12:10;;;;;;;17.63;11.70;;;19.60;99.90;;;;;;5144512;28;20027;-78
2023/10/21 06:14:41;;;;;;;16.73;11.65;;;19.70;99.90;;;;;;5145822;28;20428;-78
2023/10/21 06:17:12;;;;;;;15.85;12.07;;;19.80;99.90;;;;;;5145666;28;20118;-79
2023/10/21 06:19:46;;;;;;;17.85;11.77;;;19.80;99.90;;;;;;5145374;28;20027;-78
2023/10/21 06:22:17;;;;;;;17.35;12.65;;;20.00;99.90;;;;;;5145781;28;20011;-76
2023/10/21 06:24:48;;;;;;;18.75;12.40;;;20.00;99.90;;;;;;5144241;28;20085;-78
2023/10/21 06:27:19;;;;;;;16.85;14.30;;;20.00;99.90;;;;;;5144482;28;20117;-79
2023/10/21 06:29:49;;;;;;;18.98;12.73;;;20.30;99.90;;;;;;5144236;28;20467;-78
2023/10/21 06:32:20;;;;;;;19.38;12.65;;;20.30;99.90;;;;;;5144491;28;20031;-79
2023/10/21 06:34:51;;;;;;;19.45;11.65;;;20.50;99.90;;;;;;5143917;28;20031;-79
2023/10/21 06:37:22;;;;;;;15.70;13.90;;;20.60;99.90;;;;;;5144316;28;20033;-77
2023/10/21 06:39:53;;;;;;;19.35;13.98;;;20.60;99.90;;;;;;5144118;28;20506;-77
2023/10/21 06:42:23;;;;;;;18.55;13.38;;;20.80;99.90;;;;;;5142155;28;20058;-75
2023/10/21 06:44:54;;;;;;;16.05;12.60;;;20.80;99.90;;;;;;5146460;28;20078;-76
2023/10/21 06:47:25;;;;;;;18.98;13.07;;;20.80;99.90;;;;;;5146897;28;20041;-75
2023/10/21 06:49:56;;;;;;;16.83;13.13;;;20.90;99.90;;;;;;5147767;28;20039;-80
2023/10/21 06:52:27;;;;;;;15.40;13.52;;;21.00;99.90;;;;;;5152533;28;20022;-76
2023/10/21 06:54:58;;;;;;;17.13;13.27;;;20.90;99.90;;;;;;5167758;28;20030;-78
2023/10/21 06:57:29;;;;;;;16.35;11.93;;;21.10;99.90;;;;;;5149674;28;20391;-75
2023/10/21 07:00:00;;;;;;;21.40;14.32;;;21.20;99.90;;;;;;5136107;28;20035;-76
2023/10/21 07:02:31;;;;;;;14.95;13.45;;;21.30;99.90;;;;;;5143242;28;20461;-80
2023/10/21 07:05:02;;;;;;;16.27;12.48;;;21.40;99.90;;;;;;5136203;28;20026;-79
2023/10/21 07:07:32;;;;;;;14.70;13.20;;;21.60;99.90;;;;;;5137241;28;20049;-77
2023/10/21 07:10:04;;;;;;;18.60;13.45;;;21.70;99.90;;;;;;5135274;28;20050;-79
2023/10/21 07:12:34;;;;;;;16.25;10.98;;;21.70;99.90;;;;;;5138716;28;20031;-75
2023/10/21 07:15:07;;;;;;;16.48;9.75;;;21.90;99.90;;;;;;5135233;28;20033;-76
2023/10/21 07:17:38;;;;;;;16.98;9.32;;;21.90;99.90;;;;;;5132963;28;20065;-76
2023/10/21 07:20:09;;;;;;;12.93;9.57;;;22.00;99.90;;;;;;5135588;28;20460;-76
2023/10/21 07:22:44;;;;;;;16.08;10.55;;;22.00;99.90;;;;;;5135056;28;20050;-75
2023/10/21 07:25:18;;;;;;;13.15;10.57;;;22.30;99.90;;;;;;5134190;28;20031;-74
2023/10/21 07:27:49;;;;;;;15.85;8.82;;;22.40;99.90;;;;;;5131266;28;20054;-76
2023/10/21 07:30:23;;;;;;;13.40;11.13;;;22.30;99.90;;;;;;5132062;28;20047;-77
2023/10/21 07:32:54;;;;;;;16.45;10.70;;;22.50;99.90;;;;;;5132303;28;20023;-76
2023/10/21 07:35:25;;;;;;;18.70;11.60;;;22.50;99.90;;;;;;5135744;28;20056;-78
2023/10/21 07:37:56;;;;;;;21.40;9.65;;;22.60;99.90;;;;;;5133557;28;20463;-76
2023/10/21 07:40:29;;;;;;;18.73;9.85;;;22.50;99.90;;;;;;5127299;28;20094;-79
2023/10/21 07:43:01;;;;;;;16.38;9.43;;;22.70;99.90;;;;;;5130363;28;20371;-75
2023/10/21 07:45:31;;;;;;;15.85;10.07;;;22.80;99.90;;;;;;5136736;28;20475;-78
2023/10/21 07:48:03;;;;;;;15.93;9.57;;;23.00;99.90;;;;;;5135705;28;20030;-76
2023/10/21 07:50:34;;;;;;;16.05;9.82;;;23.00;99.90;;;;;;5135320;28;20026;-75
2023/10/21 07:53:05;;;;;;;15.90;10.50;;;23.10;99.90;;;;;;5135594;28;20042;-77
2023/10/21 07:55:36;;;;;;;16.20;10.95;;;23.10;99.90;;;;;;5134802;28;20039;-76
2023/10/21 07:58:08;;;;;;;18.58;9.85;;;23.20;99.90;;;;;;5135681;28;20348;-79
2023/10/21 08:00:39;;;;;;;17.92;11.27;;;23.30;99.90;;;;;;5135462;28;20427;-77
2023/10/21 08:03:10;;;;;;;13.20;10.35;;;23.40;99.90;;;;;;5135747;28;20046;-75
2023/10/21 08:05:42;;;;;;;15.38;9.18;;;23.40;99.90;;;;;;5137157;28;20114;-75
2023/10/21 08:08:13;;;;;;;19.05;9.52;;;23.40;99.90;;;;;;5134802;28;20094;-76
2023/10/21 08:10:44;;;;;;;17.88;9.25;;;23.50;99.90;;;;;;5135234;28;20078;-75
2023/10/21 08:13:15;;;;;;;21.10;10.32;;;23.60;99.90;;;;;;5143700;28;20386;-74
2023/10/21 08:15:46;;;;;;;16.17;8.73;;;23.80;99.90;;;;;;5144856;28;20034;-74
2023/10/21 08:18:17;;;;;;;17.33;7.65;;;23.90;99.90;;;;;;5144618;28;20035;-74
2023/10/21 08:20:48;;;;;;;16.15;7.43;;;23.90;99.90;;;;;;5144922;28;20650;-75
2023/10/21 08:23:19;;;;;;;11.00;6.78;;;24.00;99.90;;;;;;5134720;28;20046;-74
2023/10/21 08:25:50;;;;;;;18.13;7.55;;;24.00;99.90;;;;;;5143222;28;20374;-74
2023/10/21 08:28:20;;;;;;;14.05;7.32;;;24.30;99.90;;;;;;5144429;28;20077;-75
2023/10/21 08:30:51;;;;;;;14.90;7.68;;;24.10;99.90;;;;;;5145849;28;20030;-75
2023/10/21 08:33:22;;;;;;;16.50;7.95;;;24.30;99.90;;;;;;5145840;28;20549;-76
2023/10/21 08:35:53;;;;;;;14.30;6.93;;;24.30;99.90;;;;;;5145660;28;20110;-74
2023/10/21 08:38:24;;;;;;;21.63;7.90;;;24.40;99.90;;;;;;5144345;28;20033;-74
2023/10/21 08:40:55;;;;;;;16.27;7.35;;;24.50;99.90;;;;;;5145202;28;20051;-75
2023/10/21 08:43:26;;;;;;;16.83;7.70;;;24.80;99.90;;;;;;5145578;28;20033;-72
2023/10/21 08:45:59;;;;;;;15.05;8.02;;;24.50;99.90;;;;;;5144231;28;20023;-74
2023/10/21 08:48:31;;;;;;;15.50;8.15;;;24.90;99.90;;;;;;5145094;28;20050;-73
2023/10/21 08:51:04;;;;;;;12.88;7.75;;;25.00;99.90;;;;;;5145506;28;20023;-77
2023/10/21 08:53:39;;;;;;;13.20;7.00;;;25.00;99.90;;;;;;5126570;28;20066;-76
2023/10/21 08:56:11;;;;;;;17.73;6.88;;;24.70;99.90;;;;;;5125454;28;20035;-74
2023/10/21 08:58:42;;;;;;;17.20;7.13;;;24.90;99.90;;;;;;5125547;28;20023;-73
2023/10/21 09:01:16;;;;;;;18.08;6.47;;;24.80;99.90;;;;;;5124143;29;20042;-74
2023/10/21 09:03:47;;;;;;;14.40;7.47;;;25.10;99.90;;;;;;5125314;29;20019;-78
2023/10/21 09:06:18;;;;;;;16.73;7.22;;;24.70;99.90;;;;;;5123729;28;20067;-76
2023/10/21 09:08:49;;;;;;;14.82;7.30;;;25.00;99.90;;;;;;5124678;28;20039;-73
2023/10/21 09:11:24;;;;;;;14.55;6.88;;;25.30;99.90;;;;;;5123750;28;20028;-75
2023/10/21 09:13:59;;;;;;;15.10;7.72;;;25.60;99.90;;;;;;5130098;28;20387;-73
2023/10/21 09:16:31;;;;;;;18.42;8.15;;;25.50;99.90;;;;;;5143813;28;20023;-73
2023/10/21 09:19:04;;;;;;;22.58;6.35;;;25.70;99.90;;;;;;5143789;28;20026;-72
2023/10/21 09:21:39;;;;;;;15.20;6.60;;;25.50;99.90;;;;;;5132113;28;20015;-74
2023/10/21 09:24:22;;;;;;;13.63;6.95;;;25.80;99.90;;;;;;5160306;28;20030;-73
2023/10/21 09:26:52;;;;;;;14.60;7.25;;;25.90;99.90;;;;;;5149213;28;20023;-73
2023/10/21 09:29:24;;;;;;;18.98;7.30;;;26.00;99.90;;;;;;5144744;28;20046;-74
2023/10/21 09:31:56;;;;;;;12.30;7.63;;;26.10;99.90;;;;;;5144763;28;20042;-73
2023/10/21 09:34:29;;;;;;;15.30;8.93;;;26.30;99.90;;;;;;5142791;28;20117;-78
2023/10/21 09:37:03;;;;;;;19.92;8.23;;;26.10;99.90;;;;;;5144331;28;20014;-78
2023/10/21 09:39:40;;;;;;;17.23;8.40;;;26.10;99.90;;;;;;5134861;28;20055;-74
2023/10/21 09:42:10;;;;;;;11.68;7.78;;;26.10;99.90;;;;;;5142318;28;20045;-77
2023/10/21 09:44:43;;;;;;;16.00;7.47;;;26.60;99.90;;;;;;5144275;28;20027;-73
2023/10/21 09:47:15;;;;;;;14.75;7.18;;;26.40;99.90;;;;;;5144043;28;20158;-74
2023/10/21 09:49:49;;;;;;;11.45;6.15;;;26.50;99.90;;;;;;5141465;28;20046;-77
2023/10/21 09:52:31;;;;;;;10.18;6.93;;;26.40;99.90;;;;;;5141809;28;20051;-74
2023/10/21 09:55:10;;;;;;;18.13;7.18;;;26.80;99.90;;;;;;5143049;28;20494;-78
2023/10/21 09:57:42;;;;;;;14.82;7.20;;;26.90;99.90;;;;;;5132187;28;20031;-79
2023/10/21 10:00:17;;;;;;;17.63;8.40;;;26.60;99.90;;;;;;5139553;28;20035;-76
2023/10/21 10:02:50;;;;;;;11.65;8.00;;;26.80;99.90;;;;;;5123905;28;20432;-72
2023/10/21 10:05:22;;;;;;;14.55;8.48;;;26.60;99.90;;;;;;5124316;28;20058;-73
2023/10/21 10:07:53;;;;;;;13.55;8.38;;;26.90;99.90;;;;;;5123266;28;20479;-74
2023/10/21 10:10:25;;;;;;;13.93;10.65;;;27.00;99.90;;;;;;5129136;28;20038;-73
2023/10/21 10:13:01;;;;;;;11.60;9.80;;;26.90;99.90;;;;;;5143139;28;20109;-73
2023/10/21 10:15:34;;;;;;;13.52;10.55;;;26.90;99.90;;;;;;5142833;28;20032;-73
2023/10/21 10:18:13;;;;;;;18.40;11.00;;;27.00;99.90;;;;;;5144399;28;20445;-75
2023/10/21 10:20:48;;;;;;;19.23;12.57;;;27.10;99.90;;;;;;5143162;28;20730;-78
2023/10/21 10:23:20;;;;;;;18.48;11.43;;;27.30;99.90;;;;;;5147013;28;20521;-73
2023/10/21 10:25:54;;;;;;;14.65;10.98;;;27.30;99.90;;;;;;5148180;28;20062;-73
2023/10/21 10:28:26;;;;;;;12.90;10.80;;;27.50;99.90;;;;;;5147972;28;20098;-73
2023/10/21 10:30:57;;;;;;;18.85;11.40;;;27.30;99.90;;;;;;5148073;28;20085;-74
2023/10/21 10:33:28;;;;;;;12.20;10.90;;;27.70;99.90;;;;;;5147577;28;20023;-73
2023/10/21 10:36:00;;;;;;;15.90;10.20;;;27.80;99.90;;;;;;5147893;28;20039;-73
2023/10/21 10:38:35;;;;;;;20.23;10.43;;;28.00;99.90;;;;;;5147713;28;20026;-78
2023/10/21 10:41:15;;;;;;;20.85;11.73;;;27.70;99.90;;;;;;5147830;28;20047;-73
2023/10/21 10:44:01;;;;;;;17.58;10.60;;;27.70;99.90;;;;;;5147870;28;20039;-73
2023/10/21 10:46:36;;;;;;;16.63;10.80;;;28.00;99.90;;;;;;5147639;28;20430;-73
2023/10/21 10:49:08;;;;;;;15.68;10.07;;;28.00;99.90;;;;;;5147092;28;20030;-76
2023/10/21 10:51:45;;;;;;;14.85;9.52;;;27.70;99.90;;;;;;5127513;28;20106;-73
2023/10/21 10:54:19;;;;;;;17.95;9.52;;;27.70;99.90;;;;;;5127594;28;20023;-73
2023/10/21 10:56:50;;;;;;;14.13;8.70;;;27.80;99.90;;;;;;5127503;28;20039;-73
2023/10/21 10:59:23;;;;;;;14.82;8.40;;;27.90;99.90;;;;;;5135912;28;20034;-73
2023/10/21 11:01:57;;;;;;;16.25;8.10;;;28.00;99.90;;;;;;5146703;28;20029;-73
2023/10/21 11:04:32;;;;;;;12.23;8.95;;;28.10;99.90;;;;;;5146152;28;20034;-73
2023/10/21 11:07:03;;;;;;;13.65;7.80;;;28.30;99.90;;;;;;5144901;28;20383;-74
2023/10/21 11:09:34;;;;;;;14.50;9.80;;;28.30;99.90;;;;;;5145369;28;20046;-73
2023/10/21 11:12:05;;;;;;;18.85;8.60;;;28.30;99.90;;;;;;5147251;28;20043;-76
2023/10/21 11:14:37;;;;;;;13.35;9.70;;;28.40;99.90;;;;;;5147248;28;20037;-74
2023/10/21 11:17:07;;;;;;;13.02;9.18;;;28.30;99.90;;;;;;5142008;28;20087;-77
2023/10/21 11:19:40;;;;;;;11.30;8.85;;;28.60;99.90;;;;;;5135283;28;20063;-78
2023/10/21 11:22:29;;;;;;;15.02;7.35;;;28.50;99.90;;;;;;5136879;28;20093;-73
2023/10/21 11:25:02;;;;;;;15.70;7.85;;;28.20;99.90;;;;;;5162111;28;20093;-74
2023/10/21 11:27:33;;;;;;;15.65;7.32;;;28.60;99.90;;;;;;5146862;28;20029;-75
2023/10/21 11:30:10;;;;;;;15.45;7.45;;;28.80;99.90;;;;;;5146085;28;20035;-73
2023/10/21 11:32:40;;;;;;;14.18;7.25;;;28.60;99.90;;;;;;5145659;28;20027;-74
2023/10/21 11:35:13;;;;;;;19.08;7.47;;;28.50;99.90;;;;;;5146809;28;20038;-79
2023/10/21 11:37:44;;;;;;;16.50;7.68;;;28.60;99.90;;;;;;5145546;28;20023;-73
2023/10/21 11:40:16;;;;;;;20.08;8.65;;;28.60;99.90;;;;;;5145870;28;20058;-77
2023/10/21 11:43:04;;;;;;;13.07;7.50;;;28.60;99.90;;;;;;5145125;28;20050;-74
2023/10/21 11:45:34;;;;;;;18.95;6.95;;;28.50;99.90;;;;;;5142193;28;20038;-76
2023/10/21 11:48:09;;;;;;;15.30;7.63;;;28.30;99.90;;;;;;5134105;28;20474;-77
2023/10/21 11:50:44;;;;;;;13.68;6.68;;;28.40;99.90;;;;;;5125859;28;20032;-74
2023/10/21 11:53:15;;;;;;;17.63;7.32;;;28.50;99.90;;;;;;5127864;28;20023;-75
2023/10/21 12:21:17;;;;;;;;;;;28.80;99.90;;;;;;5142443;28;20513;-76
2023/10/21 12:40:30;;;;;;;18.25;10.02;;;28.70;99.90;;;;;;5145379;28;20094;-74
2023/10/21 12:43:22;;;;;;;18.85;9.85;;;28.80;99.90;;;;;;5145365;28;20026;-78
2023/10/21 12:45:46;;;;;;;14.70;11.02;;;28.80;99.90;;;;;;5140416;28;20153;-74
2023/10/21 12:48:17;;;;;;;16.55;11.32;;;28.40;99.90;;;;;;5142797;28;20023;-73
2023/10/21 12:50:52;;;;;;;17.13;10.05;;;28.60;99.90;;;;;;5144907;28;20030;-77
2023/10/21 12:53:25;;;;;;;15.38;9.68;;;28.70;99.90;;;;;;5125523;28;20023;-74
2023/10/21 12:55:56;;;;;;;17.23;9.63;;;28.80;99.90;;;;;;5138944;28;20059;-73
2023/10/21 12:58:27;;;;;;;15.65;9.85;;;28.60;99.90;;;;;;5125758;28;20066;-74
2023/10/21 13:00:57;;;;;;;13.65;10.80;;;28.70;99.90;;;;;;5142688;28;20031;-73
2023/10/21 13:03:28;;;;;;;15.45;10.57;;;28.50;99.90;;;;;;5143884;28;20023;-73
2023/10/21 13:05:59;;;;;;;19.00;10.48;;;28.60;99.90;;;;;;5144961;28;20495;-75
2023/10/21 13:08:30;;;;;;;16.52;10.40;;;28.50;99.90;;;;;;5145370;28;20086;-74
2023/10/21 13:11:01;;;;;;;18.52;11.27;;;28.40;99.90;;;;;;5144951;28;20110;-73
2023/10/21 13:13:41;;;;;;;21.45;10.20;;;28.10;99.90;;;;;;5134480;28;20403;-76
2023/10/21 13:16:12;;;;;;;13.13;10.98;;;28.20;99.90;;;;;;5141839;28;20089;-78
2023/10/21 13:18:44;;;;;;;15.25;9.93;;;28.10;99.90;;;;;;5143709;28;20088;-74
2023/10/21 13:21:17;;;;;;;17.40;10.45;;;28.10;99.90;;;;;;5144893;28;20109;-75
2023/10/21 13:23:48;;;;;;;16.50;9.82;;;27.90;99.90;;;;;;5144983;28;20019;-74
2023/10/21 13:26:18;;;;;;;20.10;11.43;;;28.10;99.90;;;;;;5144980;28;20061;-78
2023/10/21 13:28:51;;;;;;;21.40;9.85;;;28.00;99.90;;;;;;5144197;28;20077;-75
2023/10/21 13:31:22;;;;;;;16.15;8.70;;;27.80;99.90;;;;;;5144088;28;20486;-73
2023/10/21 13:33:53;;;;;;;19.70;8.25;;;27.50;99.90;;;;;;5143575;28;20035;-74
2023/10/21 13:36:24;;;;;;;13.93;7.70;;;27.10;99.90;;;;;;5144003;28;20027;-73